Daniel K Inouye Intl Information

FAA: HNL - ICAO: PHNL

Daniel K Inouye Intl (Airport) Location

State Hawaii
County Honolulu
City Honolulu
Daniel K Inouye Intl (Airport) is 3 miles northwest of Honolulu, HI.
Latitude 21-19-04.1420N
Longitude 157-55-12.8190W
Elevation 12ft

Daniel K Inouye Intl METARs

METAR PHNL 200253Z 03010KT 10SM FEW025 FEW045 28/16 A3002 RMK AO2 SLP165 T02780156 55004 $
Altimeter 30.02"
Temperature 27.8°C (82.0°F)
Wind 30° at 10KT
Clouds few at 2,500ft few at 4,500ft
Visibility 10.0mi
Time observed: 2021-10-20T02:53:00Z

Daniel K Inouye Intl (Airport) Details

Status Operational
Activation February 1938
Ownership Public
Usage Public
Chart HAWAIIAN ISLANDS
ATC on-site Yes
Beacon schedule sunset-sunrise
Beacon color clear green

Daniel K Inouye Intl (Airport) Contacts

Owner STATE OF HAWAII
Owner address HONOLULU INTL AIRPORT, HONOLULU, HI 96819
Owner phone 808-838-8600
Manager TOM ADA
Manager address P.O. BOX 8770, TAMUNING, GU 96931
Manager phone 671-646-0300

Daniel K Inouye Intl Radio Frequencies

Daniel K Inouye Intl (Airport) Radio Frequencies

UNICOM N/A
Common traffic advisory frequency (CTAF) N/A